sensor_id;sensor_type;location;lat;lon;timestamp;temperature;humidity
6822;DHT22;3449;48.728;8.968;2023-01-10T00:00:21;3.60;99.90
6822;DHT22;3449;48.728;8.968;2023-01-10T00:02:48;3.60;99.90
6822;DHT22;3449;48.728;8.968;2023-01-10T00:05:15;3.60;99.90
6822;DHT22;3449;48.728;8.968;2023-01-10T00:07:43;3.60;99.90
6822;DHT22;3449;48.728;8.968;2023-01-10T00:10:11;3.60;99.90
6822;DHT22;3449;48.728;8.968;2023-01-10T00:12:38;3.60;99.90
6822;DHT22;3449;48.728;8.968;2023-01-10T00:15:19;3.60;99.90
6822;DHT22;3449;48.728;8.968;2023-01-10T00:17:46;3.60;99.90
6822;DHT22;3449;48.728;8.968;2023-01-10T00:20:13;3.70;99.90
6822;DHT22;3449;48.728;8.968;2023-01-10T00:22:40;3.60;99.90
6822;DHT22;3449;48.728;8.968;2023-01-10T00:25:07;3.70;99.90
6822;DHT22;3449;48.728;8.968;2023-01-10T00:27:36;3.70;99.90
6822;DHT22;3449;48.728;8.968;2023-01-10T00:30:04;3.70;99.90
6822;DHT22;3449;48.728;8.968;2023-01-10T00:32:39;3.70;99.90
6822;DHT22;3449;48.728;8.968;2023-01-10T00:35:06;3.80;99.90
6822;DHT22;3449;48.728;8.968;2023-01-10T00:37:35;3.80;99.90
6822;DHT22;3449;48.728;8.968;2023-01-10T00:40:03;3.90;99.90
6822;DHT22;3449;48.728;8.968;2023-01-10T00:42:33;3.80;99.90
6822;DHT22;3449;48.728;8.968;2023-01-10T00:45:18;3.90;99.90
6822;DHT22;3449;48.728;8.968;2023-01-10T00:47:47;3.90;99.90
6822;DHT22;3449;48.728;8.968;2023-01-10T00:50:14;3.90;99.90
6822;DHT22;3449;48.728;8.968;2023-01-10T00:52:41;3.90;99.90
6822;DHT22;3449;48.728;8.968;2023-01-10T00:55:08;3.90;99.90
6822;DHT22;3449;48.728;8.968;2023-01-10T00:57:35;4.00;99.90
6822;DHT22;3449;48.728;8.968;2023-01-10T01:00:03;4.00;99.90
6822;DHT22;3449;48.728;8.968;2023-01-10T01:02:33;4.00;99.90
6822;DHT22;3449;48.728;8.968;2023-01-10T01:05:00;4.00;99.90
6822;DHT22;3449;48.728;8.968;2023-01-10T01:07:27;4.00;99.90
6822;DHT22;3449;48.728;8.968;2023-01-10T01:09:54;4.00;99.90
6822;DHT22;3449;48.728;8.968;2023-01-10T01:12:38;4.00;99.90
6822;DHT22;3449;48.728;8.968;2023-01-10T01:15:06;4.00;99.90
6822;DHT22;3449;48.728;8.968;2023-01-10T01:17:34;4.00;99.90
6822;DHT22;3449;48.728;8.968;2023-01-10T01:20:01;4.00;99.90
6822;DHT22;3449;48.728;8.968;2023-01-10T01:22:28;3.90;99.90
6822;DHT22;3449;48.728;8.968;2023-01-10T01:24:55;3.80;99.90
6822;DHT22;3449;48.728;8.968;2023-01-10T01:27:22;3.80;99.90
6822;DHT22;3449;48.728;8.968;2023-01-10T01:29:49;3.80;99.90
6822;DHT22;3449;48.728;8.968;2023-01-10T01:32:16;3.70;99.90
6822;DHT22;3449;48.728;8.968;2023-01-10T01:34:44;3.70;99.90
6822;DHT22;3449;48.728;8.968;2023-01-10T01:37:11;3.70;99.90
6822;DHT22;3449;48.728;8.968;2023-01-10T01:39:38;3.60;99.90
6822;DHT22;3449;48.728;8.968;2023-01-10T01:42:05;3.60;99.90
6822;DHT22;3449;48.728;8.968;2023-01-10T01:44:36;3.60;99.90
6822;DHT22;3449;48.728;8.968;2023-01-10T01:47:06;3.60;99.90
6822;DHT22;3449;48.728;8.968;2023-01-10T01:49:37;3.60;99.90
6822;DHT22;3449;48.728;8.968;2023-01-10T01:52:09;3.50;99.90
6822;DHT22;3449;48.728;8.968;2023-01-10T01:54:37;3.50;99.90
6822;DHT22;3449;48.728;8.968;2023-01-10T01:57:07;3.50;99.90
6822;DHT22;3449;48.728;8.968;2023-01-10T01:59:38;3.50;99.90
6822;DHT22;3449;48.728;8.968;2023-01-10T02:02:09;3.50;99.90
6822;DHT22;3449;48.728;8.968;2023-01-10T02:04:41;3.50;99.90
6822;DHT22;3449;48.728;8.968;2023-01-10T02:07:13;3.50;99.90
6822;DHT22;3449;48.728;8.968;2023-01-10T02:09:42;3.50;99.90
6822;DHT22;3449;48.728;8.968;2023-01-10T02:12:11;3.40;99.90
6822;DHT22;3449;48.728;8.968;2023-01-10T02:14:41;3.40;99.90
6822;DHT22;3449;48.728;8.968;2023-01-10T02:17:09;3.50;99.90
6822;DHT22;3449;48.728;8.968;2023-01-10T02:19:45;3.40;99.90
6822;DHT22;3449;48.728;8.968;2023-01-10T02:26:11;3.40;99.90
6822;DHT22;3449;48.728;8.968;2023-01-10T02:29:13;3.40;99.90
6822;DHT22;3449;48.728;8.968;2023-01-10T02:32:11;3.40;99.90
6822;DHT22;3449;48.728;8.968;2023-01-10T02:34:52;3.40;99.90
6822;DHT22;3449;48.728;8.968;2023-01-10T02:37:27;3.40;99.90
6822;DHT22;3449;48.728;8.968;2023-01-10T02:40:08;3.40;99.90
6822;DHT22;3449;48.728;8.968;2023-01-10T02:42:44;3.30;99.90
6822;DHT22;3449;48.728;8.968;2023-01-10T02:45:16;3.30;99.90
6822;DHT22;3449;48.728;8.968;2023-01-10T02:47:45;3.30;99.90
6822;DHT22;3449;48.728;8.968;2023-01-10T02:50:35;3.30;99.90
6822;DHT22;3449;48.728;8.968;2023-01-10T02:53:08;3.20;99.90
6822;DHT22;3449;48.728;8.968;2023-01-10T02:55:45;3.20;99.90
6822;DHT22;3449;48.728;8.968;2023-01-10T02:58:29;3.20;99.90
6822;DHT22;3449;48.728;8.968;2023-01-10T03:01:05;3.30;99.90
6822;DHT22;3449;48.728;8.968;2023-01-10T03:03:42;3.30;99.90
6822;DHT22;3449;48.728;8.968;2023-01-10T03:06:21;3.30;99.90
6822;DHT22;3449;48.728;8.968;2023-01-10T03:08:55;3.30;99.90
6822;DHT22;3449;48.728;8.968;2023-01-10T03:11:27;3.30;99.90
6822;DHT22;3449;48.728;8.968;2023-01-10T03:14:08;3.30;99.90
6822;DHT22;3449;48.728;8.968;2023-01-10T03:16:38;3.30;99.90
6822;DHT22;3449;48.728;8.968;2023-01-10T03:19:10;3.30;99.90
6822;DHT22;3449;48.728;8.968;2023-01-10T03:21:39;3.30;99.90
6822;DHT22;3449;48.728;8.968;2023-01-10T03:24:11;3.30;99.90
6822;DHT22;3449;48.728;8.968;2023-01-10T03:26:45;3.30;99.90
6822;DHT22;3449;48.728;8.968;2023-01-10T03:29:17;3.30;99.90
6822;DHT22;3449;48.728;8.968;2023-01-10T03:31:49;3.30;99.90
6822;DHT22;3449;48.728;8.968;2023-01-10T03:34:19;3.40;99.90
6822;DHT22;3449;48.728;8.968;2023-01-10T03:36:51;3.30;99.90
6822;DHT22;3449;48.728;8.968;2023-01-10T03:39:22;3.30;99.90
6822;DHT22;3449;48.728;8.968;2023-01-10T03:41:52;3.30;99.90
6822;DHT22;3449;48.728;8.968;2023-01-10T03:44:30;3.30;99.90
6822;DHT22;3449;48.728;8.968;2023-01-10T03:47:14;3.30;99.90
6822;DHT22;3449;48.728;8.968;2023-01-10T03:49:46;3.30;99.90
6822;DHT22;3449;48.728;8.968;2023-01-10T03:52:15;3.30;99.90
6822;DHT22;3449;48.728;8.968;2023-01-10T03:54:44;3.30;99.90
6822;DHT22;3449;48.728;8.968;2023-01-10T03:57:16;3.20;99.90
6822;DHT22;3449;48.728;8.968;2023-01-10T03:59:43;3.20;99.90
6822;DHT22;3449;48.728;8.968;2023-01-10T04:02:10;3.20;99.90
6822;DHT22;3449;48.728;8.968;2023-01-10T04:04:37;3.20;99.90
6822;DHT22;3449;48.728;8.968;2023-01-10T04:07:06;3.20;99.90
6822;DHT22;3449;48.728;8.968;2023-01-10T04:09:32;3.20;99.90
6822;DHT22;3449;48.728;8.968;2023-01-10T04:11:59;3.10;99.90
6822;DHT22;3449;48.728;8.968;2023-01-10T04:14:27;3.20;99.90
6822;DHT22;3449;48.728;8.968;2023-01-10T04:16:54;3.20;99.90
6822;DHT22;3449;48.728;8.968;2023-01-10T04:19:20;3.20;99.90
6822;DHT22;3449;48.728;8.968;2023-01-10T04:21:47;3.20;99.90
6822;DHT22;3449;48.728;8.968;2023-01-10T04:24:16;3.20;99.90
6822;DHT22;3449;48.728;8.968;2023-01-10T04:26:42;3.10;99.90
6822;DHT22;3449;48.728;8.968;2023-01-10T04:29:09;3.10;99.90
6822;DHT22;3449;48.728;8.968;2023-01-10T04:31:36;3.00;99.90
6822;DHT22;3449;48.728;8.968;2023-01-10T04:34:04;3.10;99.90
6822;DHT22;3449;48.728;8.968;2023-01-10T04:36:31;3.00;99.90
6822;DHT22;3449;48.728;8.968;2023-01-10T04:38:59;3.10;99.90
6822;DHT22;3449;48.728;8.968;2023-01-10T04:41:27;3.10;99.90
6822;DHT22;3449;48.728;8.968;2023-01-10T04:43:54;3.10;99.90
6822;DHT22;3449;48.728;8.968;2023-01-10T04:46:21;3.20;99.90
6822;DHT22;3449;48.728;8.968;2023-01-10T04:48:48;3.10;99.90
6822;DHT22;3449;48.728;8.968;2023-01-10T04:51:14;3.10;99.90
6822;DHT22;3449;48.728;8.968;2023-01-10T04:53:41;3.10;99.90
6822;DHT22;3449;48.728;8.968;2023-01-10T04:56:09;3.10;99.90
6822;DHT22;3449;48.728;8.968;2023-01-10T04:58:41;3.10;99.90
6822;DHT22;3449;48.728;8.968;2023-01-10T05:01:09;3.10;99.90
6822;DHT22;3449;48.728;8.968;2023-01-10T05:03:36;3.10;99.90
6822;DHT22;3449;48.728;8.968;2023-01-10T05:06:05;3.10;99.90
6822;DHT22;3449;48.728;8.968;2023-01-10T05:08:32;3.20;99.90
6822;DHT22;3449;48.728;8.968;2023-01-10T05:10:58;3.20;99.90
6822;DHT22;3449;48.728;8.968;2023-01-10T05:13:25;3.20;99.90
6822;DHT22;3449;48.728;8.968;2023-01-10T05:15:54;3.10;99.90
6822;DHT22;3449;48.728;8.968;2023-01-10T05:18:22;3.20;99.90
6822;DHT22;3449;48.728;8.968;2023-01-10T05:20:49;3.20;99.90
6822;DHT22;3449;48.728;8.968;2023-01-10T05:23:17;3.20;99.90
6822;DHT22;3449;48.728;8.968;2023-01-10T05:25:44;3.20;99.90
6822;DHT22;3449;48.728;8.968;2023-01-10T05:28:11;3.20;99.90
6822;DHT22;3449;48.728;8.968;2023-01-10T05:30:37;3.20;99.90
6822;DHT22;3449;48.728;8.968;2023-01-10T05:33:06;3.20;99.90
6822;DHT22;3449;48.728;8.968;2023-01-10T05:35:33;3.20;99.90
6822;DHT22;3449;48.728;8.968;2023-01-10T05:38:00;3.20;99.90
6822;DHT22;3449;48.728;8.968;2023-01-10T05:40:27;3.20;99.90
6822;DHT22;3449;48.728;8.968;2023-01-10T05:42:54;3.20;99.90
6822;DHT22;3449;48.728;8.968;2023-01-10T05:45:20;3.20;99.90
6822;DHT22;3449;48.728;8.968;2023-01-10T05:47:47;3.20;99.90
6822;DHT22;3449;48.728;8.968;2023-01-10T05:50:16;3.20;99.90
6822;DHT22;3449;48.728;8.968;2023-01-10T05:52:43;3.20;99.90
6822;DHT22;3449;48.728;8.968;2023-01-10T05:55:10;3.20;99.90
6822;DHT22;3449;48.728;8.968;2023-01-10T05:57:36;3.20;99.90
6822;DHT22;3449;48.728;8.968;2023-01-10T06:00:04;3.20;99.90
6822;DHT22;3449;48.728;8.968;2023-01-10T06:02:32;3.20;99.90
6822;DHT22;3449;48.728;8.968;2023-01-10T06:04:58;3.20;99.90
6822;DHT22;3449;48.728;8.968;2023-01-10T06:07:27;3.20;99.90
6822;DHT22;3449;48.728;8.968;2023-01-10T06:09:53;3.20;99.90
6822;DHT22;3449;48.728;8.968;2023-01-10T06:12:20;3.10;99.90
6822;DHT22;3449;48.728;8.968;2023-01-10T06:14:47;3.10;99.90
6822;DHT22;3449;48.728;8.968;2023-01-10T06:17:14;3.10;99.90
6822;DHT22;3449;48.728;8.968;2023-01-10T06:19:41;3.20;99.90
6822;DHT22;3449;48.728;8.968;2023-01-10T06:22:08;3.20;99.90
6822;DHT22;3449;48.728;8.968;2023-01-10T06:24:36;3.20;99.90
6822;DHT22;3449;48.728;8.968;2023-01-10T06:27:03;3.20;99.90
6822;DHT22;3449;48.728;8.968;2023-01-10T06:29:30;3.20;99.90
6822;DHT22;3449;48.728;8.968;2023-01-10T06:31:57;3.10;99.90
6822;DHT22;3449;48.728;8.968;2023-01-10T06:34:24;3.10;99.90
6822;DHT22;3449;48.728;8.968;2023-01-10T06:36:51;3.10;99.90
6822;DHT22;3449;48.728;8.968;2023-01-10T06:39:18;3.10;99.90
6822;DHT22;3449;48.728;8.968;2023-01-10T06:41:46;3.10;99.90
6822;DHT22;3449;48.728;8.968;2023-01-10T06:44:13;3.10;99.90
6822;DHT22;3449;48.728;8.968;2023-01-10T06:46:40;3.10;99.90
6822;DHT22;3449;48.728;8.968;2023-01-10T06:49:07;3.10;99.90
6822;DHT22;3449;48.728;8.968;2023-01-10T06:51:34;3.10;99.90
6822;DHT22;3449;48.728;8.968;2023-01-10T06:54:01;3.00;99.90
6822;DHT22;3449;48.728;8.968;2023-01-10T06:56:27;3.10;99.90
6822;DHT22;3449;48.728;8.968;2023-01-10T06:58:56;3.10;99.90
6822;DHT22;3449;48.728;8.968;2023-01-10T07:01:23;3.10;99.90
6822;DHT22;3449;48.728;8.968;2023-01-10T07:03:49;3.10;99.90
6822;DHT22;3449;48.728;8.968;2023-01-10T07:06:16;3.10;99.90
6822;DHT22;3449;48.728;8.968;2023-01-10T07:08:44;3.10;99.90
6822;DHT22;3449;48.728;8.968;2023-01-10T07:11:13;3.10;99.90
6822;DHT22;3449;48.728;8.968;2023-01-10T07:13:40;3.10;99.90
6822;DHT22;3449;48.728;8.968;2023-01-10T07:16:10;3.10;99.90
6822;DHT22;3449;48.728;8.968;2023-01-10T07:18:39;3.10;99.90
6822;DHT22;3449;48.728;8.968;2023-01-10T07:21:07;3.10;99.90
6822;DHT22;3449;48.728;8.968;2023-01-10T07:23:34;3.10;99.90
6822;DHT22;3449;48.728;8.968;2023-01-10T07:26:03;3.10;99.90
6822;DHT22;3449;48.728;8.968;2023-01-10T07:28:30;3.10;99.90
6822;DHT22;3449;48.728;8.968;2023-01-10T07:30:59;3.10;99.90
6822;DHT22;3449;48.728;8.968;2023-01-10T07:33:28;3.10;99.90
6822;DHT22;3449;48.728;8.968;2023-01-10T07:35:55;3.10;99.90
6822;DHT22;3449;48.728;8.968;2023-01-10T07:38:23;3.10;99.90
6822;DHT22;3449;48.728;8.968;2023-01-10T07:40:50;3.10;99.90
6822;DHT22;3449;48.728;8.968;2023-01-10T07:43:16;3.10;99.90
6822;DHT22;3449;48.728;8.968;2023-01-10T07:45:43;3.10;99.90
6822;DHT22;3449;48.728;8.968;2023-01-10T07:48:10;3.10;99.90
6822;DHT22;3449;48.728;8.968;2023-01-10T07:50:39;3.10;99.90
6822;DHT22;3449;48.728;8.968;2023-01-10T07:53:06;3.10;99.90
6822;DHT22;3449;48.728;8.968;2023-01-10T07:55:35;3.20;99.90
6822;DHT22;3449;48.728;8.968;2023-01-10T07:58:04;3.20;99.90
6822;DHT22;3449;48.728;8.968;2023-01-10T08:00:32;3.20;99.90
6822;DHT22;3449;48.728;8.968;2023-01-10T08:02:59;3.30;99.90
6822;DHT22;3449;48.728;8.968;2023-01-10T08:05:26;3.30;99.90
6822;DHT22;3449;48.728;8.968;2023-01-10T08:07:54;3.30;99.90
6822;DHT22;3449;48.728;8.968;2023-01-10T08:10:25;3.40;99.90
6822;DHT22;3449;48.728;8.968;2023-01-10T08:12:51;3.30;99.90
6822;DHT22;3449;48.728;8.968;2023-01-10T08:15:18;3.40;99.90
6822;DHT22;3449;48.728;8.968;2023-01-10T08:17:45;3.40;99.90
6822;DHT22;3449;48.728;8.968;2023-01-10T08:20:12;3.40;99.90
6822;DHT22;3449;48.728;8.968;2023-01-10T08:22:39;3.40;99.90
6822;DHT22;3449;48.728;8.968;2023-01-10T08:25:08;3.40;99.90
6822;DHT22;3449;48.728;8.968;2023-01-10T08:27:35;3.50;99.90
6822;DHT22;3449;48.728;8.968;2023-01-10T08:30:02;3.50;99.90
6822;DHT22;3449;48.728;8.968;2023-01-10T08:32:29;3.50;99.90
6822;DHT22;3449;48.728;8.968;2023-01-10T08:34:56;3.50;99.90
6822;DHT22;3449;48.728;8.968;2023-01-10T08:37:23;3.60;99.90
6822;DHT22;3449;48.728;8.968;2023-01-10T08:39:50;3.60;99.90
6822;DHT22;3449;48.728;8.968;2023-01-10T08:42:18;3.60;99.90
6822;DHT22;3449;48.728;8.968;2023-01-10T08:44:45;3.60;99.90
6822;DHT22;3449;48.728;8.968;2023-01-10T08:47:12;3.70;99.90
6822;DHT22;3449;48.728;8.968;2023-01-10T08:49:39;3.60;99.90
6822;DHT22;3449;48.728;8.968;2023-01-10T08:52:05;3.60;99.90
6822;DHT22;3449;48.728;8.968;2023-01-10T08:54:32;3.70;99.90
6822;DHT22;3449;48.728;8.968;2023-01-10T08:56:59;3.70;99.90
6822;DHT22;3449;48.728;8.968;2023-01-10T08:59:27;3.70;99.90
6822;DHT22;3449;48.728;8.968;2023-01-10T09:01:54;3.70;99.90
6822;DHT22;3449;48.728;8.968;2023-01-10T09:04:24;3.70;99.90
6822;DHT22;3449;48.728;8.968;2023-01-10T09:06:53;3.70;99.90
6822;DHT22;3449;48.728;8.968;2023-01-10T09:09:20;3.70;99.90
6822;DHT22;3449;48.728;8.968;2023-01-10T09:11:47;3.80;99.90
6822;DHT22;3449;48.728;8.968;2023-01-10T09:14:15;3.80;99.90
6822;DHT22;3449;48.728;8.968;2023-01-10T09:16:43;3.80;99.90
6822;DHT22;3449;48.728;8.968;2023-01-10T09:19:10;3.80;99.90
6822;DHT22;3449;48.728;8.968;2023-01-10T09:21:37;3.90;99.90
6822;DHT22;3449;48.728;8.968;2023-01-10T09:24:05;3.90;99.90
6822;DHT22;3449;48.728;8.968;2023-01-10T09:26:32;3.90;99.90
6822;DHT22;3449;48.728;8.968;2023-01-10T09:28:59;3.90;99.90
6822;DHT22;3449;48.728;8.968;2023-01-10T09:31:26;3.90;99.90
6822;DHT22;3449;48.728;8.968;2023-01-10T09:33:54;3.90;99.90
6822;DHT22;3449;48.728;8.968;2023-01-10T09:36:21;3.90;99.90
6822;DHT22;3449;48.728;8.968;2023-01-10T09:38:48;3.90;99.90
6822;DHT22;3449;48.728;8.968;2023-01-10T09:41:54;3.90;99.90
6822;DHT22;3449;48.728;8.968;2023-01-10T09:44:36;3.80;99.90
6822;DHT22;3449;48.728;8.968;2023-01-10T09:47:12;3.80;99.90
6822;DHT22;3449;48.728;8.968;2023-01-10T09:49:48;3.80;99.90
6822;DHT22;3449;48.728;8.968;2023-01-10T09:52:21;3.90;99.90
6822;DHT22;3449;48.728;8.968;2023-01-10T09:54:49;3.90;99.90
6822;DHT22;3449;48.728;8.968;2023-01-10T09:57:19;3.90;99.90
6822;DHT22;3449;48.728;8.968;2023-01-10T09:59:47;4.00;99.90
6822;DHT22;3449;48.728;8.968;2023-01-10T10:02:25;4.00;99.90
6822;DHT22;3449;48.728;8.968;2023-01-10T10:05:05;4.10;99.90
6822;DHT22;3449;48.728;8.968;2023-01-10T10:07:34;4.20;99.90
6822;DHT22;3449;48.728;8.968;2023-01-10T10:10:03;4.30;99.90
6822;DHT22;3449;48.728;8.968;2023-01-10T10:12:39;4.30;99.90
6822;DHT22;3449;48.728;8.968;2023-01-10T10:15:17;4.30;99.90
6822;DHT22;3449;48.728;8.968;2023-01-10T10:17:52;4.40;99.90
6822;DHT22;3449;48.728;8.968;2023-01-10T10:20:30;4.40;99.90
6822;DHT22;3449;48.728;8.968;2023-01-10T10:23:10;4.40;99.90
6822;DHT22;3449;48.728;8.968;2023-01-10T10:25:49;4.50;99.90
6822;DHT22;3449;48.728;8.968;2023-01-10T10:28:39;4.60;99.90
6822;DHT22;3449;48.728;8.968;2023-01-10T10:31:13;4.70;99.90
6822;DHT22;3449;48.728;8.968;2023-01-10T10:33:51;4.70;99.90
6822;DHT22;3449;48.728;8.968;2023-01-10T10:36:27;4.70;99.90
6822;DHT22;3449;48.728;8.968;2023-01-10T10:38:58;4.70;99.90
6822;DHT22;3449;48.728;8.968;2023-01-10T10:41:29;4.80;99.90
6822;DHT22;3449;48.728;8.968;2023-01-10T10:43:59;4.80;99.90
6822;DHT22;3449;48.728;8.968;2023-01-10T10:46:30;4.80;99.90
6822;DHT22;3449;48.728;8.968;2023-01-10T10:48:59;4.80;99.90
6822;DHT22;3449;48.728;8.968;2023-01-10T10:51:37;4.90;99.90
6822;DHT22;3449;48.728;8.968;2023-01-10T10:54:10;4.80;99.90
6822;DHT22;3449;48.728;8.968;2023-01-10T10:56:38;4.80;99.90
6822;DHT22;3449;48.728;8.968;2023-01-10T10:59:05;4.90;99.90
6822;DHT22;3449;48.728;8.968;2023-01-10T11:01:32;4.80;99.90
6822;DHT22;3449;48.728;8.968;2023-01-10T11:04:01;4.70;99.90
6822;DHT22;3449;48.728;8.968;2023-01-10T11:06:32;4.80;99.90
6822;DHT22;3449;48.728;8.968;2023-01-10T11:09:03;4.80;99.90
6822;DHT22;3449;48.728;8.968;2023-01-10T11:11:33;4.90;99.90
6822;DHT22;3449;48.728;8.968;2023-01-10T11:14:03;4.90;99.90
6822;DHT22;3449;48.728;8.968;2023-01-10T11:16:32;5.00;99.90
6822;DHT22;3449;48.728;8.968;2023-01-10T11:19:18;5.00;99.90
6822;DHT22;3449;48.728;8.968;2023-01-10T11:21:51;5.10;99.90
6822;DHT22;3449;48.728;8.968;2023-01-10T11:24:29;5.10;99.90
6822;DHT22;3449;48.728;8.968;2023-01-10T11:26:59;5.10;99.90
6822;DHT22;3449;48.728;8.968;2023-01-10T11:29:36;5.20;99.90
6822;DHT22;3449;48.728;8.968;2023-01-10T11:32:08;5.30;99.90
6822;DHT22;3449;48.728;8.968;2023-01-10T11:34:39;5.30;99.90
6822;DHT22;3449;48.728;8.968;2023-01-10T11:37:18;5.20;99.90
6822;DHT22;3449;48.728;8.968;2023-01-10T11:39:46;5.20;99.90
6822;DHT22;3449;48.728;8.968;2023-01-10T11:42:25;5.20;99.90
6822;DHT22;3449;48.728;8.968;2023-01-10T11:44:54;5.30;99.90
6822;DHT22;3449;48.728;8.968;2023-01-10T11:47:21;5.30;99.90
6822;DHT22;3449;48.728;8.968;2023-01-10T11:49:49;5.30;99.90
6822;DHT22;3449;48.728;8.968;2023-01-10T11:52:21;5.40;99.90
6822;DHT22;3449;48.728;8.968;2023-01-10T11:54:50;5.70;99.90
6822;DHT22;3449;48.728;8.968;2023-01-10T11:57:20;6.40;99.90
6822;DHT22;3449;48.728;8.968;2023-01-10T11:59:51;6.70;99.90
6822;DHT22;3449;48.728;8.968;2023-01-10T12:02:22;7.00;99.90
6822;DHT22;3449;48.728;8.968;2023-01-10T12:04:49;7.20;99.90
6822;DHT22;3449;48.728;8.968;2023-01-10T12:07:18;6.80;99.90
6822;DHT22;3449;48.728;8.968;2023-01-10T12:09:53;6.80;99.90
6822;DHT22;3449;48.728;8.968;2023-01-10T12:12:22;6.60;99.90
6822;DHT22;3449;48.728;8.968;2023-01-10T12:14:50;6.70;99.90
6822;DHT22;3449;48.728;8.968;2023-01-10T12:17:23;6.80;99.90
6822;DHT22;3449;48.728;8.968;2023-01-10T12:19:52;7.00;99.90
6822;DHT22;3449;48.728;8.968;2023-01-10T12:22:26;6.90;99.90
6822;DHT22;3449;48.728;8.968;2023-01-10T12:24:55;7.30;99.90
6822;DHT22;3449;48.728;8.968;2023-01-10T12:27:23;7.40;99.90
6822;DHT22;3449;48.728;8.968;2023-01-10T12:29:59;7.70;99.90
6822;DHT22;3449;48.728;8.968;2023-01-10T12:32:35;7.60;99.90
6822;DHT22;3449;48.728;8.968;2023-01-10T12:35:09;6.90;99.90
6822;DHT22;3449;48.728;8.968;2023-01-10T12:37:41;6.60;99.90
6822;DHT22;3449;48.728;8.968;2023-01-10T12:40:14;6.40;99.90
6822;DHT22;3449;48.728;8.968;2023-01-10T12:42:49;6.20;99.90
6822;DHT22;3449;48.728;8.968;2023-01-10T12:45:39;6.00;99.90
6822;DHT22;3449;48.728;8.968;2023-01-10T12:48:14;5.80;99.90
6822;DHT22;3449;48.728;8.968;2023-01-10T12:50:45;5.70;99.90
6822;DHT22;3449;48.728;8.968;2023-01-10T12:53:27;5.80;99.90
6822;DHT22;3449;48.728;8.968;2023-01-10T12:55:56;5.70;99.90
6822;DHT22;3449;48.728;8.968;2023-01-10T12:58:29;5.70;99.90
6822;DHT22;3449;48.728;8.968;2023-01-10T13:01:00;5.60;99.90
6822;DHT22;3449;48.728;8.968;2023-01-10T13:03:30;5.60;99.90
6822;DHT22;3449;48.728;8.968;2023-01-10T13:05:58;5.70;99.90
6822;DHT22;3449;48.728;8.968;2023-01-10T13:08:27;5.70;99.90
6822;DHT22;3449;48.728;8.968;2023-01-10T13:10:57;5.90;99.90
6822;DHT22;3449;48.728;8.968;2023-01-10T13:13:30;6.20;99.90
6822;DHT22;3449;48.728;8.968;2023-01-10T13:16:08;6.30;99.90
6822;DHT22;3449;48.728;8.968;2023-01-10T13:18:57;6.20;99.90
6822;DHT22;3449;48.728;8.968;2023-01-10T13:21:24;6.10;99.90
6822;DHT22;3449;48.728;8.968;2023-01-10T13:23:56;6.10;99.90
6822;DHT22;3449;48.728;8.968;2023-01-10T13:26:23;6.10;99.90
6822;DHT22;3449;48.728;8.968;2023-01-10T13:28:53;6.00;99.90
6822;DHT22;3449;48.728;8.968;2023-01-10T13:31:23;6.00;99.90
6822;DHT22;3449;48.728;8.968;2023-01-10T13:33:53;6.00;99.90
6822;DHT22;3449;48.728;8.968;2023-01-10T13:36:24;5.80;99.90
6822;DHT22;3449;48.728;8.968;2023-01-10T13:38:55;5.90;99.90
6822;DHT22;3449;48.728;8.968;2023-01-10T13:41:22;5.80;99.90
6822;DHT22;3449;48.728;8.968;2023-01-10T13:44:09;5.90;99.90
6822;DHT22;3449;48.728;8.968;2023-01-10T13:46:39;6.00;99.90
6822;DHT22;3449;48.728;8.968;2023-01-10T13:52:27;6.10;99.90
6822;DHT22;3449;48.728;8.968;2023-01-10T13:54:57;6.10;99.90
6822;DHT22;3449;48.728;8.968;2023-01-10T13:57:49;6.10;99.90
6822;DHT22;3449;48.728;8.968;2023-01-10T14:03:47;5.80;99.90
6822;DHT22;3449;48.728;8.968;2023-01-10T14:06:19;5.70;99.90
6822;DHT22;3449;48.728;8.968;2023-01-10T14:08:53;5.70;99.90
6822;DHT22;3449;48.728;8.968;2023-01-10T14:11:23;5.70;99.90
6822;DHT22;3449;48.728;8.968;2023-01-10T14:13:53;5.70;99.90
6822;DHT22;3449;48.728;8.968;2023-01-10T14:16:32;5.70;99.90
6822;DHT22;3449;48.728;8.968;2023-01-10T14:19:01;5.70;99.90
6822;DHT22;3449;48.728;8.968;2023-01-10T14:21:30;5.60;99.90
6822;DHT22;3449;48.728;8.968;2023-01-10T14:23:59;5.50;99.90
6822;DHT22;3449;48.728;8.968;2023-01-10T14:26:31;5.50;99.90
6822;DHT22;3449;48.728;8.968;2023-01-10T14:28:59;5.40;99.90
6822;DHT22;3449;48.728;8.968;2023-01-10T14:31:27;5.30;99.90
6822;DHT22;3449;48.728;8.968;2023-01-10T14:33:57;5.30;99.90
6822;DHT22;3449;48.728;8.968;2023-01-10T14:36:26;5.20;99.90
6822;DHT22;3449;48.728;8.968;2023-01-10T14:38:56;5.20;99.90
6822;DHT22;3449;48.728;8.968;2023-01-10T14:41:31;5.10;99.90
6822;DHT22;3449;48.728;8.968;2023-01-10T14:44:02;5.10;99.90
6822;DHT22;3449;48.728;8.968;2023-01-10T14:46:40;5.00;99.90
6822;DHT22;3449;48.728;8.968;2023-01-10T14:49:20;5.00;99.90
6822;DHT22;3449;48.728;8.968;2023-01-10T14:51:48;5.00;99.90
6822;DHT22;3449;48.728;8.968;2023-01-10T14:54:18;4.90;99.90
6822;DHT22;3449;48.728;8.968;2023-01-10T14:56:49;4.90;99.90
6822;DHT22;3449;48.728;8.968;2023-01-10T14:59:21;4.80;99.90
6822;DHT22;3449;48.728;8.968;2023-01-10T15:01:49;4.80;99.90
6822;DHT22;3449;48.728;8.968;2023-01-10T15:04:18;4.90;99.90
6822;DHT22;3449;48.728;8.968;2023-01-10T15:06:54;4.80;99.90
6822;DHT22;3449;48.728;8.968;2023-01-10T15:09:21;4.80;99.90
6822;DHT22;3449;48.728;8.968;2023-01-10T15:11:50;4.70;99.90
6822;DHT22;3449;48.728;8.968;2023-01-10T15:14:19;4.70;99.90
6822;DHT22;3449;48.728;8.968;2023-01-10T15:16:48;4.70;99.90
6822;DHT22;3449;48.728;8.968;2023-01-10T15:19:19;4.70;99.90
6822;DHT22;3449;48.728;8.968;2023-01-10T15:21:47;4.60;99.90
6822;DHT22;3449;48.728;8.968;2023-01-10T15:24:29;4.60;99.90
6822;DHT22;3449;48.728;8.968;2023-01-10T15:26:58;4.60;99.90
6822;DHT22;3449;48.728;8.968;2023-01-10T15:29:26;4.60;99.90
6822;DHT22;3449;48.728;8.968;2023-01-10T15:31:55;4.50;99.90
6822;DHT22;3449;48.728;8.968;2023-01-10T15:34:29;4.50;99.90
6822;DHT22;3449;48.728;8.968;2023-01-10T15:36:59;4.40;99.90
6822;DHT22;3449;48.728;8.968;2023-01-10T15:39:29;4.40;99.90
6822;DHT22;3449;48.728;8.968;2023-01-10T15:42:00;4.40;99.90
6822;DHT22;3449;48.728;8.968;2023-01-10T15:44:35;4.40;99.90
6822;DHT22;3449;48.728;8.968;2023-01-10T15:47:03;4.30;99.90
6822;DHT22;3449;48.728;8.968;2023-01-10T15:49:30;4.30;99.90
6822;DHT22;3449;48.728;8.968;2023-01-10T15:51:57;4.30;99.90
6822;DHT22;3449;48.728;8.968;2023-01-10T15:54:31;4.30;99.90
6822;DHT22;3449;48.728;8.968;2023-01-10T15:57:06;4.20;99.90
6822;DHT22;3449;48.728;8.968;2023-01-10T15:59:37;4.20;99.90
6822;DHT22;3449;48.728;8.968;2023-01-10T16:02:17;4.20;99.90
6822;DHT22;3449;48.728;8.968;2023-01-10T16:04:47;4.10;99.90
6822;DHT22;3449;48.728;8.968;2023-01-10T16:07:17;4.10;99.90
6822;DHT22;3449;48.728;8.968;2023-01-10T16:09:49;4.10;99.90
6822;DHT22;3449;48.728;8.968;2023-01-10T16:12:33;4.10;99.90
6822;DHT22;3449;48.728;8.968;2023-01-10T16:15:19;4.10;99.90
6822;DHT22;3449;48.728;8.968;2023-01-10T16:17:47;4.00;99.90
6822;DHT22;3449;48.728;8.968;2023-01-10T16:20:15;4.00;99.90
6822;DHT22;3449;48.728;8.968;2023-01-10T16:22:43;4.00;99.90
6822;DHT22;3449;48.728;8.968;2023-01-10T16:25:15;3.90;99.90
6822;DHT22;3449;48.728;8.968;2023-01-10T16:27:44;3.90;99.90
6822;DHT22;3449;48.728;8.968;2023-01-10T16:30:20;3.90;99.90
6822;DHT22;3449;48.728;8.968;2023-01-10T16:32:48;3.80;99.90
6822;DHT22;3449;48.728;8.968;2023-01-10T16:35:15;3.80;99.90
6822;DHT22;3449;48.728;8.968;2023-01-10T16:37:44;3.80;99.90
6822;DHT22;3449;48.728;8.968;2023-01-10T16:40:17;3.80;99.90
6822;DHT22;3449;48.728;8.968;2023-01-10T16:42:47;3.80;99.90
6822;DHT22;3449;48.728;8.968;2023-01-10T16:45:31;3.80;99.90
6822;DHT22;3449;48.728;8.968;2023-01-10T16:47:58;3.80;99.90